Time;durP1;ratioP1;P1;durP2;ratioP2;P2;SDS_P1;SDS_P2;PMS_P1;PMS_P2;Temp;Humidity;BMP_temperature;BMP_pressure;BME280_temperature;BME280_humidity;BME280_pressure;Samples;Min_cycle;Max_cycle;Signal;HPM_P1;HPM_P2
2022/04/14 18:56:53;;;;;;;0.00;0.00;;;;;;;14.21;100.00;101509.03;5157765;27;20210;-54
2022/04/14 18:59:19;;;;;;;0.00;0.00;;;;;;;14.02;100.00;101511.31;5122815;27;20142;-51
2022/04/14 19:01:44;;;;;;;1.92;0.10;;;;;;;13.91;100.00;101511.78;5127563;27;20034;-49
2022/04/14 19:04:10;;;;;;;0.45;0.10;;;;;;;13.67;100.00;101511.09;5130442;27;20030;-54
2022/04/14 19:06:35;;;;;;;1.70;0.28;;;;;;;13.35;100.00;101519.50;5130342;27;20185;-48
2022/04/14 19:09:00;;;;;;;0.77;0.20;;;;;;;13.06;100.00;101524.59;5125147;27;20031;-49
2022/04/14 19:11:26;;;;;;;2.33;0.30;;;;;;;12.81;100.00;101533.81;5131229;27;20030;-50
2022/04/14 19:13:51;;;;;;;3.05;0.47;;;;;;;12.58;100.00;101536.50;5130013;27;20039;-48
2022/04/14 19:16:16;;;;;;;1.25;0.47;;;;;;;12.39;100.00;101535.97;5134505;27;20042;-49
2022/04/14 19:18:42;;;;;;;0.85;0.30;;;;;;;12.25;100.00;101543.88;5131389;27;20066;-54
2022/04/14 19:21:07;;;;;;;1.33;0.10;;;;;;;12.14;100.00;101542.44;5117995;27;20027;-50
2022/04/14 19:23:32;;;;;;;1.02;0.20;;;;;;;11.99;100.00;101553.00;5124141;27;20031;-53
2022/04/14 19:25:58;;;;;;;1.13;0.20;;;;;;;11.83;100.00;101553.88;5127266;27;20059;-49
2022/04/14 19:28:23;;;;;;;1.85;0.30;;;;;;;11.68;100.00;101555.59;5126174;27;20038;-49
2022/04/14 19:30:49;;;;;;;0.73;0.20;;;;;;;11.53;100.00;101560.78;5108530;27;20293;-50
2022/04/14 19:33:15;;;;;;;0.35;0.05;;;;;;;11.37;100.00;101564.31;5127945;27;20031;-51
2022/04/14 19:35:40;;;;;;;0.43;0.10;;;;;;;11.26;100.00;101577.97;5132896;27;20115;-49
2022/04/14 19:38:06;;;;;;;1.85;0.10;;;;;;;11.16;100.00;101582.63;5132076;27;20043;-47
2022/04/14 19:40:31;;;;;;;3.90;0.25;;;;;;;11.03;100.00;101583.13;5129528;27;20034;-48
2022/04/14 19:42:57;;;;;;;1.42;0.40;;;;;;;10.90;100.00;101584.44;5129477;27;20843;-48
2022/04/14 19:45:22;;;;;;;1.17;0.60;;;;;;;10.81;100.00;101590.75;5130693;27;20031;-49
2022/04/14 19:47:48;;;;;;;3.05;0.30;;;;;;;10.66;100.00;101603.00;5128490;27;20023;-49
2022/04/14 19:50:14;;;;;;;3.10;0.85;;;;;;;10.53;100.00;101598.16;5133284;27;20026;-48
2022/04/14 19:52:41;;;;;;;2.03;0.88;;;;;;;10.37;100.00;101603.44;5127893;27;20036;-47
2022/04/14 19:55:08;;;;;;;1.45;0.35;;;;;;;10.24;100.00;101601.22;5133600;27;20031;-47
2022/04/14 19:57:34;;;;;;;3.67;0.80;;;;;;;10.16;100.00;101604.69;5132521;27;20505;-48
2022/04/14 20:00:03;;;;;;;2.15;0.60;;;;;;;10.07;100.00;101608.31;5125777;27;20059;-48
2022/04/14 20:02:29;;;;;;;2.40;0.65;;;;;;;10.02;100.00;101611.44;5132230;27;20027;-47
2022/04/14 20:04:54;;;;;;;3.60;0.43;;;;;;;9.93;100.00;101616.84;5135269;27;20042;-49
2022/04/14 20:07:20;;;;;;;3.60;0.82;;;;;;;9.88;100.00;101616.50;5122608;27;20038;-51
2022/04/14 20:09:46;;;;;;;5.18;1.15;;;;;;;9.94;100.00;101626.44;5109667;28;20043;-47
2022/04/14 20:12:12;;;;;;;4.95;0.82;;;;;;;9.87;100.00;101625.44;5118739;28;20034;-48
2022/04/14 20:14:38;;;;;;;3.97;0.85;;;;;;;9.79;100.00;101620.94;5120935;27;20063;-52
2022/04/14 20:17:04;;;;;;;3.38;0.70;;;;;;;9.76;100.00;101621.25;5114070;28;20126;-50
2022/04/14 20:19:30;;;;;;;3.90;0.88;;;;;;;9.70;100.00;101627.16;5113975;28;20027;-48
2022/04/14 20:21:55;;;;;;;2.47;1.63;;;;;;;9.65;100.00;101630.28;5116035;28;20023;-51
2022/04/14 20:24:21;;;;;;;6.68;1.80;;;;;;;9.57;100.00;101630.25;5109948;28;20043;-48
2022/04/14 20:26:46;;;;;;;9.43;1.83;;;;;;;9.49;100.00;101641.59;5115495;28;20091;-50
2022/04/14 20:29:12;;;;;;;5.03;1.00;;;;;;;9.36;100.00;101644.66;5114261;28;20498;-51
2022/04/14 20:31:37;;;;;;;4.10;1.67;;;;;;;9.26;100.00;101635.97;5118197;28;20027;-51
2022/04/14 20:34:02;;;;;;;6.93;2.35;;;;;;;9.18;100.00;101639.41;5095934;28;20167;-48
2022/04/14 20:36:28;;;;;;;4.30;0.90;;;;;;;9.11;100.00;101656.91;5116099;28;20463;-49
2022/04/14 20:38:53;;;;;;;6.85;1.88;;;;;;;9.07;100.00;101647.59;5111748;28;20031;-48
2022/04/14 20:41:20;;;;;;;3.97;1.15;;;;;;;9.06;100.00;101651.22;5111883;28;20027;-48
2022/04/14 20:43:45;;;;;;;2.53;1.92;;;;;;;9.12;100.00;101647.13;5117259;28;20470;-49
2022/04/14 20:46:10;;;;;;;6.18;1.65;;;;;;;9.10;100.00;101644.63;5116589;28;20023;-47
2022/04/14 20:48:36;;;;;;;9.55;2.67;;;;;;;9.05;100.00;101652.19;5112971;28;20487;-47
2022/04/14 20:51:01;;;;;;;9.55;3.00;;;;;;;9.03;100.00;101658.63;5120975;28;20095;-48
2022/04/14 20:53:29;;;;;;;7.72;2.60;;;;;;;8.95;100.00;101662.03;5114954;28;20031;-52
2022/04/14 20:55:55;;;;;;;11.88;3.50;;;;;;;8.84;100.00;101665.72;5113648;28;20042;-48
2022/04/14 20:58:20;;;;;;;13.07;3.90;;;;;;;8.72;100.00;101659.84;5117472;28;20028;-52
2022/04/14 21:00:46;;;;;;;19.58;5.40;;;;;;;8.63;100.00;101659.91;5113914;28;20549;-47
2022/04/14 21:03:11;;;;;;;17.48;5.47;;;;;;;8.57;100.00;101656.06;5101229;28;20143;-49
2022/04/14 21:05:37;;;;;;;17.83;6.78;;;;;;;8.60;100.00;101666.31;5113590;28;20028;-47
2022/04/14 21:08:02;;;;;;;15.70;5.18;;;;;;;8.61;100.00;101662.69;5117629;28;20026;-52
2022/04/14 21:10:27;;;;;;;21.00;5.80;;;;;;;8.59;100.00;101669.94;5117648;28;20031;-51
2022/04/14 21:12:53;;;;;;;11.15;2.55;;;;;;;8.61;100.00;101670.63;5115452;28;20483;-50
2022/04/14 21:15:19;;;;;;;17.65;3.53;;;;;;;8.63;100.00;101675.78;5113066;28;20464;-47
2022/04/14 21:17:44;;;;;;;8.90;3.45;;;;;;;8.63;100.00;101671.31;5113937;28;20027;-47
2022/04/14 21:20:10;;;;;;;14.95;2.63;;;;;;;8.59;100.00;101675.22;5116490;28;20023;-50
2022/04/14 21:22:37;;;;;;;10.50;4.35;;;;;;;8.52;100.00;101679.47;5110436;28;20038;-47
2022/04/14 21:25:03;;;;;;;2.88;1.48;;;;;;;8.50;100.00;101676.13;5112447;28;20043;-48
2022/04/14 21:27:28;;;;;;;5.10;2.08;;;;;;;8.47;100.00;101682.53;5113192;28;20027;-51
2022/04/14 21:29:53;;;;;;;136.75;44.13;;;;;;;8.43;100.00;101678.50;5118066;28;20031;-46
2022/04/14 21:32:19;;;;;;;66.38;21.98;;;;;;;8.36;100.00;101679.22;5092366;28;20665;-50
2022/04/14 21:34:44;;;;;;;34.35;12.23;;;;;;;8.35;100.00;101680.22;5112227;28;20527;-48
2022/04/14 21:37:09;;;;;;;19.17;5.38;;;;;;;8.28;100.00;101679.94;5108645;28;20027;-49
2022/04/14 21:39:35;;;;;;;13.55;5.00;;;;;;;8.24;100.00;101681.25;5114163;28;20053;-48
2022/04/14 21:42:04;;;;;;;7.55;4.00;;;;;;;8.23;100.00;101679.56;5115060;28;20055;-47
2022/04/14 21:44:31;;;;;;;7.72;2.50;;;;;;;8.24;100.00;101678.59;5114067;28;20027;-50
2022/04/14 21:46:56;;;;;;;5.85;1.92;;;;;;;8.21;100.00;101681.50;5113611;28;20087;-47
2022/04/14 21:49:22;;;;;;;7.05;3.00;;;;;;;8.19;100.00;101686.13;5114530;28;20106;-49
2022/04/14 21:51:47;;;;;;;3.70;2.13;;;;;;;8.14;100.00;101686.56;5113518;28;20325;-50
2022/04/14 21:54:12;;;;;;;6.38;1.48;;;;;;;8.14;100.00;101688.38;5113776;28;20383;-47
2022/04/14 21:56:38;;;;;;;9.88;2.05;;;;;;;8.08;100.00;101685.34;5114720;28;20062;-50
2022/04/14 21:59:03;;;;;;;5.25;2.22;;;;;;;8.07;100.00;101685.47;5114674;28;20027;-49
2022/04/14 22:01:28;;;;;;;5.30;1.50;;;;;;;8.07;100.00;101685.47;5111316;28;20039;-48
2022/04/14 22:03:55;;;;;;;3.50;1.98;;;;;;;8.03;100.00;101687.56;5114048;28;20031;-47
2022/04/14 22:06:21;;;;;;;2.63;1.58;;;;;;;8.01;100.00;101692.16;5117503;28;20031;-47
2022/04/14 22:08:49;;;;;;;6.07;2.22;;;;;;;7.97;100.00;101690.78;5113738;28;20038;-52
2022/04/14 22:11:14;;;;;;;5.93;1.50;;;;;;;7.94;100.00;101696.34;5114425;28;20395;-48
2022/04/14 22:13:42;;;;;;;2.08;1.60;;;;;;;7.88;100.00;101696.94;5111604;28;20309;-49
2022/04/14 22:16:08;;;;;;;5.90;2.05;;;;;;;7.86;100.00;101702.34;5108882;28;20046;-48
2022/04/14 22:18:34;;;;;;;2.47;1.45;;;;;;;7.81;100.00;101706.41;5114746;28;20124;-51
2022/04/14 22:20:59;;;;;;;3.80;1.80;;;;;;;7.78;100.00;101698.78;5109133;28;20153;-49
2022/04/14 22:23:25;;;;;;;6.05;2.75;;;;;;;7.74;100.00;101706.13;5094189;28;20119;-49
2022/04/14 22:25:50;;;;;;;8.88;3.88;;;;;;;7.74;100.00;101705.31;5114263;28;20447;-50
2022/04/14 22:28:16;;;;;;;11.65;3.42;;;;;;;7.69;100.00;101708.38;5114681;28;20029;-47
2022/04/14 22:30:41;;;;;;;6.95;3.05;;;;;;;7.68;100.00;101714.63;5114646;27;20020;-48
2022/04/14 22:33:07;;;;;;;10.98;3.83;;;;;;;7.69;100.00;101718.09;5117455;28;20027;-50
2022/04/14 22:35:33;;;;;;;10.25;3.90;;;;;;;7.68;100.00;101719.09;5120709;27;20031;-50
2022/04/14 22:37:59;;;;;;;4.43;2.60;;;;;;;7.63;100.00;101719.50;5120662;27;20035;-48
2022/04/14 22:40:24;;;;;;;10.52;3.40;;;;;;;7.62;100.00;101717.84;5094021;28;20383;-48
2022/04/14 22:42:50;;;;;;;10.93;4.07;;;;;;;7.62;100.00;101718.66;5119593;27;20027;-47
2022/04/14 22:45:15;;;;;;;6.35;2.15;;;;;;;7.62;100.00;101721.31;5119524;28;20430;-48
2022/04/14 22:47:40;;;;;;;7.00;2.75;;;;;;;7.58;100.00;101725.19;5117708;28;20058;-48
2022/04/14 22:50:06;;;;;;;5.88;3.38;;;;;;;7.52;100.00;101722.31;5120693;28;20758;-50
2022/04/14 22:52:33;;;;;;;10.45;4.22;;;;;;;7.40;100.00;101729.53;5114789;28;20162;-48
2022/04/14 22:54:59;;;;;;;7.50;3.40;;;;;;;7.30;100.00;101728.69;5117001;28;20036;-48
2022/04/14 22:57:25;;;;;;;9.60;3.58;;;;;;;7.20;100.00;101733.94;5117337;28;20024;-48
2022/04/14 22:59:50;;;;;;;7.72;4.13;;;;;;;7.14;100.00;101723.97;5113587;28;20069;-49
2022/04/14 23:02:15;;;;;;;10.65;3.95;;;;;;;7.07;100.00;101722.84;5121098;27;20024;-49
2022/04/14 23:04:41;;;;;;;13.98;3.67;;;;;;;7.00;100.00;101727.84;5116069;28;20388;-51
2022/04/14 23:07:06;;;;;;;4.70;3.40;;;;;;;6.94;100.00;101729.25;5116443;28;20938;-49
2022/04/14 23:09:31;;;;;;;7.25;3.40;;;;;;;6.89;100.00;101731.44;5115801;28;20019;-52
2022/04/14 23:11:57;;;;;;;8.07;3.05;;;;;;;6.84;100.00;101730.16;5114581;28;20119;-47
2022/04/14 23:14:23;;;;;;;10.23;4.35;;;;;;;6.80;100.00;101731.44;5117444;28;20479;-48
2022/04/14 23:16:49;;;;;;;13.55;3.97;;;;;;;6.74;100.00;101725.72;5115032;28;20023;-50
2022/04/14 23:19:15;;;;;;;10.90;4.13;;;;;;;6.70;100.00;101729.59;5111533;28;20039;-49
2022/04/14 23:21:43;;;;;;;7.80;3.90;;;;;;;6.65;100.00;101738.88;5114643;28;20032;-46
2022/04/14 23:24:09;;;;;;;5.85;2.70;;;;;;;6.57;100.00;101730.81;5114000;28;20475;-51
2022/04/14 23:26:36;;;;;;;7.32;2.75;;;;;;;6.48;100.00;101728.00;5114166;28;20516;-46
2022/04/14 23:29:02;;;;;;;7.50;3.08;;;;;;;6.44;100.00;101723.13;5112623;28;20570;-47
2022/04/14 23:31:28;;;;;;;8.30;3.35;;;;;;;6.39;100.00;101725.34;5113259;28;20020;-46
2022/04/14 23:33:54;;;;;;;6.88;2.67;;;;;;;6.33;100.00;101724.06;5113825;28;20495;-46
2022/04/14 23:36:29;;;;;;;5.47;2.33;;;;;;;6.25;100.00;101723.91;5112621;28;20103;-46
2022/04/14 23:39:15;;;;;;;5.22;2.63;;;;;;;6.16;100.00;101728.16;5113546;28;20238;-46
2022/04/14 23:41:45;;;;;;;4.63;1.98;;;;;;;6.07;100.00;101736.84;5109865;27;20485;-46
2022/04/14 23:44:11;;;;;;;6.68;2.25;;;;;;;6.05;100.00;101738.78;5115272;28;20118;-46
2022/04/14 23:46:36;;;;;;;10.88;3.17;;;;;;;6.04;100.00;101739.72;5119935;28;20026;-48
2022/04/14 23:49:02;;;;;;;7.65;2.45;;;;;;;6.01;100.00;101740.00;5119726;28;20574;-47
2022/04/14 23:51:27;;;;;;;5.45;2.42;;;;;;;5.96;100.00;101748.28;5101196;28;20428;-47
2022/04/14 23:53:53;;;;;;;10.50;2.47;;;;;;;5.89;100.00;101747.94;5117729;28;20031;-50
2022/04/14 23:56:18;;;;;;;9.18;3.88;;;;;;;5.86;100.00;101750.84;5118190;28;20031;-46
2022/04/14 23:58:43;;;;;;;13.75;3.17;;;;;;;5.78;100.00;101750.66;5117717;28;20093;-47
